sensor_id;sensor_type;location;lat;lon;timestamp;temperature;humidity
2054;DHT22;1032;52.542;13.440;2022-07-11T00:02:01;17.30;86.20
2054;DHT22;1032;52.542;13.440;2022-07-11T00:04:29;17.20;86.60
2054;DHT22;1032;52.542;13.440;2022-07-11T00:06:56;17.20;86.70
2054;DHT22;1032;52.542;13.440;2022-07-11T00:09:23;17.10;86.70
2054;DHT22;1032;52.542;13.440;2022-07-11T00:11:49;17.20;86.70
2054;DHT22;1032;52.542;13.440;2022-07-11T00:14:17;17.20;86.90
2054;DHT22;1032;52.542;13.440;2022-07-11T00:16:44;17.10;87.10
2054;DHT22;1032;52.542;13.440;2022-07-11T00:19:10;17.00;87.50
2054;DHT22;1032;52.542;13.440;2022-07-11T00:21:38;16.90;87.70
2054;DHT22;1032;52.542;13.440;2022-07-11T00:24:05;16.90;87.80
2054;DHT22;1032;52.542;13.440;2022-07-11T00:26:33;17.10;88.50
2054;DHT22;1032;52.542;13.440;2022-07-11T00:28:59;16.80;88.60
2054;DHT22;1032;52.542;13.440;2022-07-11T00:31:26;16.70;88.90
2054;DHT22;1032;52.542;13.440;2022-07-11T00:33:53;16.60;88.90
2054;DHT22;1032;52.542;13.440;2022-07-11T00:36:20;16.30;88.90
2054;DHT22;1032;52.542;13.440;2022-07-11T00:38:48;16.50;89.50
2054;DHT22;1032;52.542;13.440;2022-07-11T00:41:15;16.50;90.10
2054;DHT22;1032;52.542;13.440;2022-07-11T00:43:42;16.50;90.10
2054;DHT22;1032;52.542;13.440;2022-07-11T00:46:09;16.30;90.20
2054;DHT22;1032;52.542;13.440;2022-07-11T00:48:36;16.40;90.30
2054;DHT22;1032;52.542;13.440;2022-07-11T00:51:03;16.30;90.40
2054;DHT22;1032;52.542;13.440;2022-07-11T00:53:31;16.30;90.80
2054;DHT22;1032;52.542;13.440;2022-07-11T00:55:59;16.20;90.50
2054;DHT22;1032;52.542;13.440;2022-07-11T00:58:26;16.20;90.60
2054;DHT22;1032;52.542;13.440;2022-07-11T01:00:53;16.20;90.70
2054;DHT22;1032;52.542;13.440;2022-07-11T01:03:20;16.20;90.80
2054;DHT22;1032;52.542;13.440;2022-07-11T01:05:47;16.20;90.90
2054;DHT22;1032;52.542;13.440;2022-07-11T01:08:14;16.20;91.00
2054;DHT22;1032;52.542;13.440;2022-07-11T01:10:41;16.10;91.20
2054;DHT22;1032;52.542;13.440;2022-07-11T01:13:09;16.10;91.00
2054;DHT22;1032;52.542;13.440;2022-07-11T01:15:35;16.10;91.10
2054;DHT22;1032;52.542;13.440;2022-07-11T01:18:02;16.10;91.30
2054;DHT22;1032;52.542;13.440;2022-07-11T01:20:30;16.00;91.50
2054;DHT22;1032;52.542;13.440;2022-07-11T01:23:02;16.00;91.40
2054;DHT22;1032;52.542;13.440;2022-07-11T01:25:29;16.00;91.70
2054;DHT22;1032;52.542;13.440;2022-07-11T01:27:56;16.00;91.70
2054;DHT22;1032;52.542;13.440;2022-07-11T01:30:23;15.90;91.80
2054;DHT22;1032;52.542;13.440;2022-07-11T01:32:51;15.90;91.80
2054;DHT22;1032;52.542;13.440;2022-07-11T01:35:17;15.90;91.90
2054;DHT22;1032;52.542;13.440;2022-07-11T01:37:44;15.80;92.00
2054;DHT22;1032;52.542;13.440;2022-07-11T01:40:12;15.80;92.10
2054;DHT22;1032;52.542;13.440;2022-07-11T01:42:39;15.80;92.20
2054;DHT22;1032;52.542;13.440;2022-07-11T01:45:07;15.70;92.20
2054;DHT22;1032;52.542;13.440;2022-07-11T01:47:34;15.70;92.30
2054;DHT22;1032;52.542;13.440;2022-07-11T01:50:00;15.60;92.50
2054;DHT22;1032;52.542;13.440;2022-07-11T01:52:27;15.60;92.60
2054;DHT22;1032;52.542;13.440;2022-07-11T01:54:53;15.70;92.70
2054;DHT22;1032;52.542;13.440;2022-07-11T01:57:21;15.60;92.70
2054;DHT22;1032;52.542;13.440;2022-07-11T01:59:48;15.50;92.80
2054;DHT22;1032;52.542;13.440;2022-07-11T02:02:15;15.40;92.90
2054;DHT22;1032;52.542;13.440;2022-07-11T02:04:42;15.50;93.10
2054;DHT22;1032;52.542;13.440;2022-07-11T02:07:08;15.40;93.10
2054;DHT22;1032;52.542;13.440;2022-07-11T02:09:36;15.60;93.30
2054;DHT22;1032;52.542;13.440;2022-07-11T02:12:04;15.40;93.30
2054;DHT22;1032;52.542;13.440;2022-07-11T02:14:32;15.40;93.30
2054;DHT22;1032;52.542;13.440;2022-07-11T02:16:59;15.40;93.30
2054;DHT22;1032;52.542;13.440;2022-07-11T02:19:26;15.50;93.60
2054;DHT22;1032;52.542;13.440;2022-07-11T02:21:52;15.30;93.50
2054;DHT22;1032;52.542;13.440;2022-07-11T02:24:19;15.30;93.60
2054;DHT22;1032;52.542;13.440;2022-07-11T02:26:45;15.20;93.70
2054;DHT22;1032;52.542;13.440;2022-07-11T02:29:12;15.20;93.70
2054;DHT22;1032;52.542;13.440;2022-07-11T02:31:40;14.70;93.60
2054;DHT22;1032;52.542;13.440;2022-07-11T02:34:06;15.10;93.90
2054;DHT22;1032;52.542;13.440;2022-07-11T02:36:33;14.60;93.70
2054;DHT22;1032;52.542;13.440;2022-07-11T02:38:59;15.20;94.00
2054;DHT22;1032;52.542;13.440;2022-07-11T02:41:26;14.80;93.90
2054;DHT22;1032;52.542;13.440;2022-07-11T02:43:54;15.20;94.30
2054;DHT22;1032;52.542;13.440;2022-07-11T02:46:21;15.20;94.20
2054;DHT22;1032;52.542;13.440;2022-07-11T02:48:49;15.20;94.30
2054;DHT22;1032;52.542;13.440;2022-07-11T02:51:16;15.20;94.30
2054;DHT22;1032;52.542;13.440;2022-07-11T02:53:44;15.20;94.30
2054;DHT22;1032;52.542;13.440;2022-07-11T02:56:10;15.10;94.40
2054;DHT22;1032;52.542;13.440;2022-07-11T02:58:38;15.20;94.90
2054;DHT22;1032;52.542;13.440;2022-07-11T03:01:05;15.00;94.40
2054;DHT22;1032;52.542;13.440;2022-07-11T03:03:31;15.10;94.90
2054;DHT22;1032;52.542;13.440;2022-07-11T03:05:59;15.50;94.80
2054;DHT22;1032;52.542;13.440;2022-07-11T03:08:26;15.00;94.60
2054;DHT22;1032;52.542;13.440;2022-07-11T03:10:53;15.10;94.80
2054;DHT22;1032;52.542;13.440;2022-07-11T03:13:19;15.00;94.90
2054;DHT22;1032;52.542;13.440;2022-07-11T03:15:46;14.90;95.00
2054;DHT22;1032;52.542;13.440;2022-07-11T03:18:12;14.90;94.90
2054;DHT22;1032;52.542;13.440;2022-07-11T03:20:39;15.00;95.00
2054;DHT22;1032;52.542;13.440;2022-07-11T03:23:07;15.10;95.10
2054;DHT22;1032;52.542;13.440;2022-07-11T03:25:33;14.70;94.90
2054;DHT22;1032;52.542;13.440;2022-07-11T03:28:00;14.90;95.10
2054;DHT22;1032;52.542;13.440;2022-07-11T03:30:27;14.90;95.20
2054;DHT22;1032;52.542;13.440;2022-07-11T03:32:53;15.00;95.40
2054;DHT22;1032;52.542;13.440;2022-07-11T03:35:20;14.80;95.40
2054;DHT22;1032;52.542;13.440;2022-07-11T03:38:04;14.80;95.60
2054;DHT22;1032;52.542;13.440;2022-07-11T03:40:32;14.90;95.60
2054;DHT22;1032;52.542;13.440;2022-07-11T03:42:58;14.60;95.50
2054;DHT22;1032;52.542;13.440;2022-07-11T03:45:25;14.80;95.70
2054;DHT22;1032;52.542;13.440;2022-07-11T03:47:53;14.70;95.70
2054;DHT22;1032;52.542;13.440;2022-07-11T03:50:19;14.70;95.80
2054;DHT22;1032;52.542;13.440;2022-07-11T03:52:46;14.70;95.70
2054;DHT22;1032;52.542;13.440;2022-07-11T03:55:13;14.70;95.80
2054;DHT22;1032;52.542;13.440;2022-07-11T03:57:41;14.70;95.80
2054;DHT22;1032;52.542;13.440;2022-07-11T04:00:08;15.00;96.00
2054;DHT22;1032;52.542;13.440;2022-07-11T04:02:35;14.80;96.00
2054;DHT22;1032;52.542;13.440;2022-07-11T04:05:03;14.80;95.90
2054;DHT22;1032;52.542;13.440;2022-07-11T04:07:30;15.10;96.00
2054;DHT22;1032;52.542;13.440;2022-07-11T04:09:56;14.80;95.90
2054;DHT22;1032;52.542;13.440;2022-07-11T04:12:23;15.00;95.90
2054;DHT22;1032;52.542;13.440;2022-07-11T04:14:51;15.00;95.80
2054;DHT22;1032;52.542;13.440;2022-07-11T04:17:17;15.10;95.80
2054;DHT22;1032;52.542;13.440;2022-07-11T04:19:44;15.20;95.70
2054;DHT22;1032;52.542;13.440;2022-07-11T04:22:11;15.30;95.60
2054;DHT22;1032;52.542;13.440;2022-07-11T04:24:38;15.40;95.50
2054;DHT22;1032;52.542;13.440;2022-07-11T04:27:05;15.50;95.40
2054;DHT22;1032;52.542;13.440;2022-07-11T04:29:31;15.60;95.20
2054;DHT22;1032;52.542;13.440;2022-07-11T04:31:59;15.70;95.10
2054;DHT22;1032;52.542;13.440;2022-07-11T04:34:26;15.80;94.90
2054;DHT22;1032;52.542;13.440;2022-07-11T04:36:52;15.90;94.80
2054;DHT22;1032;52.542;13.440;2022-07-11T04:39:19;15.70;94.60
2054;DHT22;1032;52.542;13.440;2022-07-11T04:41:45;16.10;94.60
2054;DHT22;1032;52.542;13.440;2022-07-11T04:44:12;16.20;94.50
2054;DHT22;1032;52.542;13.440;2022-07-11T04:46:39;16.20;94.30
2054;DHT22;1032;52.542;13.440;2022-07-11T04:49:06;16.30;94.20
2054;DHT22;1032;52.542;13.440;2022-07-11T04:51:33;16.40;94.10
2054;DHT22;1032;52.542;13.440;2022-07-11T04:54:01;16.50;94.00
2054;DHT22;1032;52.542;13.440;2022-07-11T04:56:28;16.60;93.90
2054;DHT22;1032;52.542;13.440;2022-07-11T04:58:54;16.60;93.80
2054;DHT22;1032;52.542;13.440;2022-07-11T05:01:21;16.70;93.60
2054;DHT22;1032;52.542;13.440;2022-07-11T05:03:48;17.00;93.70
2054;DHT22;1032;52.542;13.440;2022-07-11T05:06:15;16.80;93.60
2054;DHT22;1032;52.542;13.440;2022-07-11T05:08:42;17.00;93.60
2054;DHT22;1032;52.542;13.440;2022-07-11T05:11:09;16.90;93.50
2054;DHT22;1032;52.542;13.440;2022-07-11T05:13:36;17.00;93.40
2054;DHT22;1032;52.542;13.440;2022-07-11T05:16:03;17.00;93.30
2054;DHT22;1032;52.542;13.440;2022-07-11T05:18:30;17.30;93.50
2054;DHT22;1032;52.542;13.440;2022-07-11T05:20:57;17.10;93.30
2054;DHT22;1032;52.542;13.440;2022-07-11T05:23:25;17.20;93.30
2054;DHT22;1032;52.542;13.440;2022-07-11T05:25:51;17.20;93.10
2054;DHT22;1032;52.542;13.440;2022-07-11T05:28:18;17.30;93.10
2054;DHT22;1032;52.542;13.440;2022-07-11T05:30:45;17.30;93.00
2054;DHT22;1032;52.542;13.440;2022-07-11T05:33:11;17.40;93.00
2054;DHT22;1032;52.542;13.440;2022-07-11T05:35:38;17.40;93.00
2054;DHT22;1032;52.542;13.440;2022-07-11T05:38:04;17.90;93.20
2054;DHT22;1032;52.542;13.440;2022-07-11T05:40:32;17.50;92.90
2054;DHT22;1032;52.542;13.440;2022-07-11T05:42:59;17.60;92.90
2054;DHT22;1032;52.542;13.440;2022-07-11T05:45:26;17.60;92.80
2054;DHT22;1032;52.542;13.440;2022-07-11T05:47:52;17.90;93.00
2054;DHT22;1032;52.542;13.440;2022-07-11T05:50:19;17.60;92.80
2054;DHT22;1032;52.542;13.440;2022-07-11T05:52:46;17.60;92.70
2054;DHT22;1032;52.542;13.440;2022-07-11T05:55:12;17.20;92.50
2054;DHT22;1032;52.542;13.440;2022-07-11T05:57:40;17.80;92.80
2054;DHT22;1032;52.542;13.440;2022-07-11T06:00:08;17.90;92.80
2054;DHT22;1032;52.542;13.440;2022-07-11T06:02:37;17.90;92.80
2054;DHT22;1032;52.542;13.440;2022-07-11T06:05:05;18.20;92.90
2054;DHT22;1032;52.542;13.440;2022-07-11T06:07:31;17.90;92.70
2054;DHT22;1032;52.542;13.440;2022-07-11T06:10:15;18.10;92.70
2054;DHT22;1032;52.542;13.440;2022-07-11T06:12:43;18.10;92.70
2054;DHT22;1032;52.542;13.440;2022-07-11T06:15:10;18.20;93.00
2054;DHT22;1032;52.542;13.440;2022-07-11T06:17:37;18.20;92.70
2054;DHT22;1032;52.542;13.440;2022-07-11T06:20:04;18.30;92.80
2054;DHT22;1032;52.542;13.440;2022-07-11T06:22:31;18.30;92.70
2054;DHT22;1032;52.542;13.440;2022-07-11T06:24:58;18.40;92.70
2054;DHT22;1032;52.542;13.440;2022-07-11T06:27:24;18.50;92.70
2054;DHT22;1032;52.542;13.440;2022-07-11T06:29:53;18.60;92.60
2054;DHT22;1032;52.542;13.440;2022-07-11T06:32:20;18.70;92.50
2054;DHT22;1032;52.542;13.440;2022-07-11T06:34:46;18.80;92.50
2054;DHT22;1032;52.542;13.440;2022-07-11T06:37:13;18.80;92.40
2054;DHT22;1032;52.542;13.440;2022-07-11T06:39:39;18.80;92.30
2054;DHT22;1032;52.542;13.440;2022-07-11T06:42:06;18.90;92.30
2054;DHT22;1032;52.542;13.440;2022-07-11T06:44:33;18.90;92.30
2054;DHT22;1032;52.542;13.440;2022-07-11T06:47:00;19.00;92.30
2054;DHT22;1032;52.542;13.440;2022-07-11T06:49:27;18.60;92.00
2054;DHT22;1032;52.542;13.440;2022-07-11T06:51:54;18.90;92.10
2054;DHT22;1032;52.542;13.440;2022-07-11T06:54:20;19.00;92.20
2054;DHT22;1032;52.542;13.440;2022-07-11T06:56:47;19.10;92.20
2054;DHT22;1032;52.542;13.440;2022-07-11T06:59:13;19.00;92.20
2054;DHT22;1032;52.542;13.440;2022-07-11T07:01:40;19.30;92.30
2054;DHT22;1032;52.542;13.440;2022-07-11T07:04:09;19.40;92.40
2054;DHT22;1032;52.542;13.440;2022-07-11T07:06:36;19.10;92.20
2054;DHT22;1032;52.542;13.440;2022-07-11T07:09:03;19.10;92.20
2054;DHT22;1032;52.542;13.440;2022-07-11T07:11:29;18.80;92.10
2054;DHT22;1032;52.542;13.440;2022-07-11T07:13:56;19.10;92.30
2054;DHT22;1032;52.542;13.440;2022-07-11T07:16:22;19.20;92.40
2054;DHT22;1032;52.542;13.440;2022-07-11T07:18:49;19.20;92.30
2054;DHT22;1032;52.542;13.440;2022-07-11T07:21:18;19.40;92.20
2054;DHT22;1032;52.542;13.440;2022-07-11T07:23:45;19.80;92.20
2054;DHT22;1032;52.542;13.440;2022-07-11T07:26:12;19.70;91.90
2054;DHT22;1032;52.542;13.440;2022-07-11T07:28:39;19.90;91.80
2054;DHT22;1032;52.542;13.440;2022-07-11T07:31:06;20.00;91.40
2054;DHT22;1032;52.542;13.440;2022-07-11T07:33:32;20.10;91.10
2054;DHT22;1032;52.542;13.440;2022-07-11T07:35:59;20.20;91.10
2054;DHT22;1032;52.542;13.440;2022-07-11T07:38:27;20.30;90.80
2054;DHT22;1032;52.542;13.440;2022-07-11T07:40:54;20.20;90.50
2054;DHT22;1032;52.542;13.440;2022-07-11T07:43:20;20.20;90.50
2054;DHT22;1032;52.542;13.440;2022-07-11T07:45:47;20.00;90.40
2054;DHT22;1032;52.542;13.440;2022-07-11T07:48:13;20.00;90.40
2054;DHT22;1032;52.542;13.440;2022-07-11T07:50:40;19.90;90.50
2054;DHT22;1032;52.542;13.440;2022-07-11T07:53:07;19.70;90.50
2054;DHT22;1032;52.542;13.440;2022-07-11T07:55:36;19.70;90.70
2054;DHT22;1032;52.542;13.440;2022-07-11T07:58:03;19.70;90.90
2054;DHT22;1032;52.542;13.440;2022-07-11T08:00:29;19.60;91.00
2054;DHT22;1032;52.542;13.440;2022-07-11T08:03:14;19.70;91.00
2054;DHT22;1032;52.542;13.440;2022-07-11T08:05:40;19.70;91.00
2054;DHT22;1032;52.542;13.440;2022-07-11T08:08:07;19.60;90.80
2054;DHT22;1032;52.542;13.440;2022-07-11T08:10:33;19.70;90.80
2054;DHT22;1032;52.542;13.440;2022-07-11T08:13:02;19.70;90.90
2054;DHT22;1032;52.542;13.440;2022-07-11T08:15:29;19.80;91.00
2054;DHT22;1032;52.542;13.440;2022-07-11T08:17:55;19.80;90.80
2054;DHT22;1032;52.542;13.440;2022-07-11T08:20:22;19.90;90.90
2054;DHT22;1032;52.542;13.440;2022-07-11T08:22:48;19.90;90.80
2054;DHT22;1032;52.542;13.440;2022-07-11T08:25:15;19.90;90.50
2054;DHT22;1032;52.542;13.440;2022-07-11T08:27:42;19.90;90.40
2054;DHT22;1032;52.542;13.440;2022-07-11T08:30:10;19.90;90.20
2054;DHT22;1032;52.542;13.440;2022-07-11T08:32:41;20.00;90.00
2054;DHT22;1032;52.542;13.440;2022-07-11T08:35:09;20.00;89.90
2054;DHT22;1032;52.542;13.440;2022-07-11T08:37:36;19.60;88.60
2054;DHT22;1032;52.542;13.440;2022-07-11T08:40:04;20.40;89.00
2054;DHT22;1032;52.542;13.440;2022-07-11T08:42:30;20.20;89.20
2054;DHT22;1032;52.542;13.440;2022-07-11T08:44:57;20.10;89.30
2054;DHT22;1032;52.542;13.440;2022-07-11T08:47:26;20.20;90.00
2054;DHT22;1032;52.542;13.440;2022-07-11T08:49:52;20.10;89.10
2054;DHT22;1032;52.542;13.440;2022-07-11T08:52:20;20.30;88.70
2054;DHT22;1032;52.542;13.440;2022-07-11T08:54:47;20.60;88.40
2054;DHT22;1032;52.542;13.440;2022-07-11T08:57:14;20.70;88.40
2054;DHT22;1032;52.542;13.440;2022-07-11T08:59:41;20.70;88.00
2054;DHT22;1032;52.542;13.440;2022-07-11T09:02:09;20.80;87.40
2054;DHT22;1032;52.542;13.440;2022-07-11T09:04:38;20.80;87.20
2054;DHT22;1032;52.542;13.440;2022-07-11T09:07:05;20.60;86.80
2054;DHT22;1032;52.542;13.440;2022-07-11T09:09:32;20.80;87.00
2054;DHT22;1032;52.542;13.440;2022-07-11T09:11:58;20.90;86.80
2054;DHT22;1032;52.542;13.440;2022-07-11T09:14:26;21.00;86.40
2054;DHT22;1032;52.542;13.440;2022-07-11T09:16:56;21.10;85.10
2054;DHT22;1032;52.542;13.440;2022-07-11T09:19:23;21.10;85.00
2054;DHT22;1032;52.542;13.440;2022-07-11T09:22:00;21.10;85.40
2054;DHT22;1032;52.542;13.440;2022-07-11T09:24:56;20.90;85.40
2054;DHT22;1032;52.542;13.440;2022-07-11T09:27:43;21.10;82.30
2054;DHT22;1032;52.542;13.440;2022-07-11T09:30:18;21.00;82.60
2054;DHT22;1032;52.542;13.440;2022-07-11T09:32:56;21.00;83.60
2054;DHT22;1032;52.542;13.440;2022-07-11T09:35:24;21.20;84.00
2054;DHT22;1032;52.542;13.440;2022-07-11T09:37:52;21.20;83.50
2054;DHT22;1032;52.542;13.440;2022-07-11T09:40:19;21.20;82.70
2054;DHT22;1032;52.542;13.440;2022-07-11T09:42:49;21.10;81.20
2054;DHT22;1032;52.542;13.440;2022-07-11T09:45:16;21.40;80.20
2054;DHT22;1032;52.542;13.440;2022-07-11T09:47:44;21.30;79.40
2054;DHT22;1032;52.542;13.440;2022-07-11T09:50:11;21.40;79.30
2054;DHT22;1032;52.542;13.440;2022-07-11T09:52:39;21.30;80.30
2054;DHT22;1032;52.542;13.440;2022-07-11T09:55:09;21.60;81.60
2054;DHT22;1032;52.542;13.440;2022-07-11T09:57:37;21.50;80.20
2054;DHT22;1032;52.542;13.440;2022-07-11T10:00:06;21.40;78.80
2054;DHT22;1032;52.542;13.440;2022-07-11T10:02:34;21.40;78.90
2054;DHT22;1032;52.542;13.440;2022-07-11T10:05:01;21.50;79.00
2054;DHT22;1032;52.542;13.440;2022-07-11T10:07:29;21.40;79.00
2054;DHT22;1032;52.542;13.440;2022-07-11T10:09:57;21.50;78.50
2054;DHT22;1032;52.542;13.440;2022-07-11T10:12:26;21.30;76.80
2054;DHT22;1032;52.542;13.440;2022-07-11T10:14:54;21.30;76.30
2054;DHT22;1032;52.542;13.440;2022-07-11T10:17:27;21.30;76.20
2054;DHT22;1032;52.542;13.440;2022-07-11T10:20:02;21.30;76.60
2054;DHT22;1032;52.542;13.440;2022-07-11T10:22:37;21.30;78.00
2054;DHT22;1032;52.542;13.440;2022-07-11T10:25:13;21.50;78.20
2054;DHT22;1032;52.542;13.440;2022-07-11T10:28:03;21.30;77.40
2054;DHT22;1032;52.542;13.440;2022-07-11T10:30:46;21.40;74.40
2054;DHT22;1032;52.542;13.440;2022-07-11T10:33:14;21.40;75.30
2054;DHT22;1032;52.542;13.440;2022-07-11T10:35:42;21.40;75.70
2054;DHT22;1032;52.542;13.440;2022-07-11T10:38:09;21.50;75.60
2054;DHT22;1032;52.542;13.440;2022-07-11T10:40:43;21.20;75.40
2054;DHT22;1032;52.542;13.440;2022-07-11T10:43:13;21.50;74.20
2054;DHT22;1032;52.542;13.440;2022-07-11T10:45:54;21.40;73.90
2054;DHT22;1032;52.542;13.440;2022-07-11T10:48:22;21.40;74.60
2054;DHT22;1032;52.542;13.440;2022-07-11T10:50:54;21.50;75.10
2054;DHT22;1032;52.542;13.440;2022-07-11T10:53:31;21.60;75.30
2054;DHT22;1032;52.542;13.440;2022-07-11T10:56:05;21.80;74.80
2054;DHT22;1032;52.542;13.440;2022-07-11T10:58:41;21.70;73.80
2054;DHT22;1032;52.542;13.440;2022-07-11T11:01:08;21.80;73.20
2054;DHT22;1032;52.542;13.440;2022-07-11T11:03:35;21.90;72.90
2054;DHT22;1032;52.542;13.440;2022-07-11T11:06:03;22.00;73.30
2054;DHT22;1032;52.542;13.440;2022-07-11T11:08:43;22.00;72.80
2054;DHT22;1032;52.542;13.440;2022-07-11T11:11:34;22.40;72.40
2054;DHT22;1032;52.542;13.440;2022-07-11T11:14:18;22.20;70.60
2054;DHT22;1032;52.542;13.440;2022-07-11T11:16:46;22.30;70.40
2054;DHT22;1032;52.542;13.440;2022-07-11T11:22:13;22.20;71.10
2054;DHT22;1032;52.542;13.440;2022-07-11T11:24:40;22.30;71.20
2054;DHT22;1032;52.542;13.440;2022-07-11T11:27:16;22.50;71.40
2054;DHT22;1032;52.542;13.440;2022-07-11T11:29:44;22.40;70.30
2054;DHT22;1032;52.542;13.440;2022-07-11T11:32:12;22.40;70.30
2054;DHT22;1032;52.542;13.440;2022-07-11T11:34:39;22.60;69.70
2054;DHT22;1032;52.542;13.440;2022-07-11T11:37:07;22.60;69.30
2054;DHT22;1032;52.542;13.440;2022-07-11T11:39:35;22.70;69.50
2054;DHT22;1032;52.542;13.440;2022-07-11T11:42:09;22.70;69.50
2054;DHT22;1032;52.542;13.440;2022-07-11T11:44:50;22.70;68.80
2054;DHT22;1032;52.542;13.440;2022-07-11T11:47:17;22.80;68.70
2054;DHT22;1032;52.542;13.440;2022-07-11T11:49:44;22.80;68.80
2054;DHT22;1032;52.542;13.440;2022-07-11T11:52:12;22.80;68.60
2054;DHT22;1032;52.542;13.440;2022-07-11T11:54:39;22.90;68.50
2054;DHT22;1032;52.542;13.440;2022-07-11T11:57:07;22.90;68.90
2054;DHT22;1032;52.542;13.440;2022-07-11T11:59:36;22.90;67.60
2054;DHT22;1032;52.542;13.440;2022-07-11T12:02:04;23.00;67.40
2054;DHT22;1032;52.542;13.440;2022-07-11T12:04:32;23.00;67.40
2054;DHT22;1032;52.542;13.440;2022-07-11T12:06:59;23.00;67.40
2054;DHT22;1032;52.542;13.440;2022-07-11T12:09:27;23.10;67.40
2054;DHT22;1032;52.542;13.440;2022-07-11T12:12:17;23.10;68.00
2054;DHT22;1032;52.542;13.440;2022-07-11T12:15:03;23.20;68.10
2054;DHT22;1032;52.542;13.440;2022-07-11T12:17:31;23.10;67.10
2054;DHT22;1032;52.542;13.440;2022-07-11T12:19:57;23.30;67.00
2054;DHT22;1032;52.542;13.440;2022-07-11T12:22:24;23.30;65.40
2054;DHT22;1032;52.542;13.440;2022-07-11T12:24:52;23.30;64.70
2054;DHT22;1032;52.542;13.440;2022-07-11T12:27:19;23.30;65.00
2054;DHT22;1032;52.542;13.440;2022-07-11T12:29:46;23.30;65.50
2054;DHT22;1032;52.542;13.440;2022-07-11T12:32:17;23.40;65.30
2054;DHT22;1032;52.542;13.440;2022-07-11T12:34:47;23.50;64.90
2054;DHT22;1032;52.542;13.440;2022-07-11T12:37:16;23.60;64.90
2054;DHT22;1032;52.542;13.440;2022-07-11T12:39:48;23.80;64.50
2054;DHT22;1032;52.542;13.440;2022-07-11T12:42:22;24.00;64.20
2054;DHT22;1032;52.542;13.440;2022-07-11T12:44:55;24.10;62.30
2054;DHT22;1032;52.542;13.440;2022-07-11T12:47:26;24.20;60.20
2054;DHT22;1032;52.542;13.440;2022-07-11T12:49:54;24.20;60.90
2054;DHT22;1032;52.542;13.440;2022-07-11T12:52:21;24.20;59.70
2054;DHT22;1032;52.542;13.440;2022-07-11T12:54:48;24.20;60.00
2054;DHT22;1032;52.542;13.440;2022-07-11T12:57:20;24.30;60.00
2054;DHT22;1032;52.542;13.440;2022-07-11T12:59:47;24.20;59.60
2054;DHT22;1032;52.542;13.440;2022-07-11T13:02:14;24.30;59.80
2054;DHT22;1032;52.542;13.440;2022-07-11T13:04:45;24.30;60.00
2054;DHT22;1032;52.542;13.440;2022-07-11T13:07:27;24.20;59.50
2054;DHT22;1032;52.542;13.440;2022-07-11T13:10:14;24.20;59.30
2054;DHT22;1032;52.542;13.440;2022-07-11T13:12:41;24.00;59.70
2054;DHT22;1032;52.542;13.440;2022-07-11T13:15:09;23.90;59.90
2054;DHT22;1032;52.542;13.440;2022-07-11T13:17:38;23.80;59.60
2054;DHT22;1032;52.542;13.440;2022-07-11T13:20:07;23.70;59.10
2054;DHT22;1032;52.542;13.440;2022-07-11T13:22:36;23.80;59.30
2054;DHT22;1032;52.542;13.440;2022-07-11T13:25:03;23.90;59.50
2054;DHT22;1032;52.542;13.440;2022-07-11T13:27:30;23.90;59.50
2054;DHT22;1032;52.542;13.440;2022-07-11T13:29:57;24.00;59.50
2054;DHT22;1032;52.542;13.440;2022-07-11T13:32:24;24.00;59.20
2054;DHT22;1032;52.542;13.440;2022-07-11T13:34:50;24.20;59.40
2054;DHT22;1032;52.542;13.440;2022-07-11T13:37:17;24.20;59.50
2054;DHT22;1032;52.542;13.440;2022-07-11T13:39:45;24.30;59.80
2054;DHT22;1032;52.542;13.440;2022-07-11T13:42:12;24.20;59.80
2054;DHT22;1032;52.542;13.440;2022-07-11T13:44:39;24.50;59.70
2054;DHT22;1032;52.542;13.440;2022-07-11T13:47:05;24.60;59.40
2054;DHT22;1032;52.542;13.440;2022-07-11T13:49:32;24.70;58.90
2054;DHT22;1032;52.542;13.440;2022-07-11T13:51:59;24.70;58.20
2054;DHT22;1032;52.542;13.440;2022-07-11T13:54:25;24.70;58.30
2054;DHT22;1032;52.542;13.440;2022-07-11T13:56:53;24.70;58.60
2054;DHT22;1032;52.542;13.440;2022-07-11T13:59:20;24.60;58.70
2054;DHT22;1032;52.542;13.440;2022-07-11T14:01:47;24.50;59.00
2054;DHT22;1032;52.542;13.440;2022-07-11T14:04:13;24.50;58.60
2054;DHT22;1032;52.542;13.440;2022-07-11T14:06:40;24.40;58.90
2054;DHT22;1032;52.542;13.440;2022-07-11T14:09:07;24.30;58.90
2054;DHT22;1032;52.542;13.440;2022-07-11T14:11:33;24.10;58.50
2054;DHT22;1032;52.542;13.440;2022-07-11T14:14:01;24.00;58.80
2054;DHT22;1032;52.542;13.440;2022-07-11T14:16:28;23.90;59.50
2054;DHT22;1032;52.542;13.440;2022-07-11T14:18:56;23.80;60.00
2054;DHT22;1032;52.542;13.440;2022-07-11T14:21:26;23.60;60.20
2054;DHT22;1032;52.542;13.440;2022-07-11T14:23:52;23.60;60.30
2054;DHT22;1032;52.542;13.440;2022-07-11T14:26:19;23.50;60.40
2054;DHT22;1032;52.542;13.440;2022-07-11T14:28:46;23.40;60.00
2054;DHT22;1032;52.542;13.440;2022-07-11T14:31:15;23.50;60.10
2054;DHT22;1032;52.542;13.440;2022-07-11T14:33:42;23.60;60.10
2054;DHT22;1032;52.542;13.440;2022-07-11T14:36:08;23.60;60.00
2054;DHT22;1032;52.542;13.440;2022-07-11T14:38:35;23.60;60.10
2054;DHT22;1032;52.542;13.440;2022-07-11T14:41:02;23.60;59.80
2054;DHT22;1032;52.542;13.440;2022-07-11T14:43:28;23.60;59.60
2054;DHT22;1032;52.542;13.440;2022-07-11T14:45:56;23.60;59.50
2054;DHT22;1032;52.542;13.440;2022-07-11T14:48:24;23.60;59.60
2054;DHT22;1032;52.542;13.440;2022-07-11T14:50:51;23.90;59.50
2054;DHT22;1032;52.542;13.440;2022-07-11T14:53:17;23.90;59.00
2054;DHT22;1032;52.542;13.440;2022-07-11T14:55:44;24.10;59.00
2054;DHT22;1032;52.542;13.440;2022-07-11T14:58:10;24.10;58.20
2054;DHT22;1032;52.542;13.440;2022-07-11T15:00:37;24.20;57.90
2054;DHT22;1032;52.542;13.440;2022-07-11T15:03:04;24.30;58.20
2054;DHT22;1032;52.542;13.440;2022-07-11T15:05:51;24.50;57.80
2054;DHT22;1032;52.542;13.440;2022-07-11T15:08:17;24.50;57.50
2054;DHT22;1032;52.542;13.440;2022-07-11T15:11:02;24.40;57.40
2054;DHT22;1032;52.542;13.440;2022-07-11T15:13:46;24.40;57.40
2054;DHT22;1032;52.542;13.440;2022-07-11T15:16:13;24.30;57.00
2054;DHT22;1032;52.542;13.440;2022-07-11T15:18:40;24.30;57.00
2054;DHT22;1032;52.542;13.440;2022-07-11T15:21:08;24.20;57.10
2054;DHT22;1032;52.542;13.440;2022-07-11T15:23:35;24.40;57.60
2054;DHT22;1032;52.542;13.440;2022-07-11T15:26:01;24.20;57.70
2054;DHT22;1032;52.542;13.440;2022-07-11T15:28:28;23.90;57.60
2054;DHT22;1032;52.542;13.440;2022-07-11T15:30:55;24.10;57.80
2054;DHT22;1032;52.542;13.440;2022-07-11T15:33:22;24.00;57.60
2054;DHT22;1032;52.542;13.440;2022-07-11T15:35:49;24.10;57.70
2054;DHT22;1032;52.542;13.440;2022-07-11T15:38:17;24.10;57.70
2054;DHT22;1032;52.542;13.440;2022-07-11T15:40:44;24.00;57.70
2054;DHT22;1032;52.542;13.440;2022-07-11T15:43:10;24.00;57.60
2054;DHT22;1032;52.542;13.440;2022-07-11T15:45:37;24.00;57.50
2054;DHT22;1032;52.542;13.440;2022-07-11T15:48:04;24.00;57.70
2054;DHT22;1032;52.542;13.440;2022-07-11T15:50:31;23.90;57.60
2054;DHT22;1032;52.542;13.440;2022-07-11T15:52:58;23.80;57.40
2054;DHT22;1032;52.542;13.440;2022-07-11T15:55:27;23.80;57.60